Time;durP1;ratioP1;P1;durP2;ratioP2;P2;SDS_P1;SDS_P2;PMS_P1;PMS_P2;Temp;Humidity;BMP_temperature;BMP_pressure;BME280_temperature;BME280_humidity;BME280_pressure;Samples;Min_cycle;Max_cycle;Signal;HPM_P1;HPM_P2
2022/01/01 00:44:52;;;;;;;10.00;6.50;;;;;;;9.34;91.38;98680.05;212205;1324;24800;-76
2022/01/01 00:59:00;;;;;;;;;;;;;;;;;;;;;
2022/01/01 01:34:16;;;;;;;10.30;8.60;;;;;;;9.44;92.97;98748.31;212479;1323;26891;-76
2022/01/01 01:41:30;;;;;;;11.10;9.20;;;;;;;9.40;93.13;98754.45;212613;1324;22614;-75
2022/01/01 01:48:43;;;;;;;;;;;;;;;;;;;;;
2022/01/01 02:44:46;;;;;;;6.60;5.50;;;;;;;9.35;95.90;98819.98;212215;1326;23256;-76
2022/01/01 03:12:51;;;;;;;11.70;9.30;;;;;;;9.34;96.30;98825.39;212135;1326;25343;-75
2022/01/01 03:33:57;;;;;;;;;;;;;;;;;;;;;
2022/01/01 04:16:32;;;;;;;6.20;5.10;;;;;;;9.44;97.41;98870.62;212281;1323;22589;-75
2022/01/01 04:30:38;;;;;;;12.70;10.20;;;;;;;9.41;97.46;98880.52;211943;1326;22666;-75
2022/01/01 04:44:47;;;;;;;7.40;6.00;;;;;;;9.37;97.44;98886.49;212365;1324;22599;-74
2022/01/01 05:05:45;;;;;;;4.80;4.30;;;;;;;9.29;98.10;98905.73;212170;1323;23136;-76
2022/01/01 05:40:54;;;;;;;;;;;;;;;;;;;;;
2022/01/01 06:01:35;;;;;;;8.80;6.90;;;;;;;9.17;99.58;98956.52;212116;1326;25450;-76
2022/01/01 06:14:57;;;;;;;10.80;8.70;;;;;;;9.16;99.99;98968.02;212588;1323;25946;-75
2022/01/01 06:21:17;;;;;;;11.80;8.20;;;;;;;9.18;100.00;98973.36;212520;1326;25545;-75
2022/01/01 06:27:51;;;;;;;8.90;6.60;;;;;;;9.20;100.00;98998.10;212612;1323;24406;-75
2022/01/01 06:33:53;;;;;;;;;;;;;;;;;;;;;
2022/01/01 06:40:11;;;;;;;8.50;6.80;;;;;;;9.18;100.00;98995.45;212275;1326;22625;-75
2022/01/01 06:46:35;;;;;;;10.70;8.30;;;;;;;9.19;100.00;99002.06;212374;1323;24450;-75
2022/01/01 06:58:18;;;;;;;13.80;9.80;;;;;;;9.18;100.00;99016.61;212361;1326;22678;-75
2022/01/01 07:04:21;;;;;;;;;;;;;;;;;;;;;
2022/01/01 07:09:39;;;;;;;21.00;13.90;;;;;;;9.20;100.00;99022.42;212836;1322;22606;-75
2022/01/01 07:22:06;;;;;;;30.40;18.00;;;;;;;9.30;100.00;99040.67;212332;1326;22589;-75
2022/01/01 07:27:43;;;;;;;29.40;17.60;;;;;;;9.34;100.00;99042.70;212520;1323;22619;-74
2022/01/01 07:33:04;;;;;;;;;;;;;;;;;;;;;
2022/01/01 07:39:10;;;;;;;;;;;;;;;;;;;;;
2022/01/01 07:45:39;;;;;;;;;;;;;;;;;;;;;
2022/01/01 07:52:17;;;;;;;;;;;;;;;9.41;100.00;99046.02;212034;1323;25267;-74
2022/01/01 07:58:05;;;;;;;32.10;18.30;;;;;;;9.38;100.00;99048.84;212386;1326;22633;-75
2022/01/01 08:04:16;;;;;;;29.00;17.70;;;;;;;9.41;100.00;99057.95;212735;1323;25322;-74
2022/01/01 08:11:12;;;;;;;;;;;;;;;;;;;;;
2022/01/01 08:17:45;;;;;;;;;;;;;;;;;;;;;
2022/01/01 08:24:09;;;;;;;;;;;;;;;;;;;;;
2022/01/01 08:30:00;;;;;;;;;;;;;;;;;;;;;
2022/01/01 08:35:58;;;;;;;30.50;18.90;;;;;;;9.48;100.00;99093.02;212377;1323;23501;-75
2022/01/01 08:48:18;;;;;;;36.40;22.90;;;;;;;9.50;100.00;99109.96;212669;1323;24285;-75
2022/01/01 08:53:32;;;;;;;34.20;22.50;;;;;;;9.50;100.00;99114.08;212435;1323;22596;-75
2022/01/01 09:11:15;;;;;;;15.60;11.80;;;;;;;9.59;100.00;99132.88;212708;1323;22818;-73
2022/01/01 09:16:29;;;;;;;13.50;9.60;;;;;;;9.57;100.00;99132.41;212958;1323;25927;-74
2022/01/01 09:21:51;;;;;;;15.20;10.80;;;;;;;9.58;100.00;99136.79;212478;1323;22645;-74
2022/01/01 09:32:56;;;;;;;17.60;13.20;;;;;;;9.69;100.00;99145.84;212420;1326;24269;-75
2022/01/01 09:44:10;;;;;;;25.30;16.70;;;;;;;9.86;100.00;99153.00;212873;1323;22655;-75
2022/01/01 09:49:36;;;;;;;31.60;18.70;;;;;;;9.87;100.00;99152.59;212809;1323;24164;-74
2022/01/01 09:54:54;;;;;;;40.70;24.10;;;;;;;9.88;100.00;99157.82;212859;1323;24310;-75
2022/01/01 10:00:11;;;;;;;45.20;26.50;;;;;;;9.85;100.00;99161.46;212904;1323;24392;-75
2022/01/01 10:06:15;;;;;;;;;;;;;;;;;;;;;
2022/01/01 10:11:54;;;;;;;40.20;24.00;;;;;;;9.73;100.00;99168.77;212486;1326;22593;-75
2022/01/01 10:17:48;;;;;;;33.50;21.20;;;;;;;9.72;100.00;99170.45;212731;1323;22922;-75
2022/01/01 10:23:08;;;;;;;32.60;20.80;;;;;;;9.72;100.00;99169.86;212861;1323;25237;-75
2022/01/01 10:29:15;;;;;;;28.90;17.40;;;;;;;9.75;100.00;99174.56;212722;1323;22596;-75
2022/01/01 10:35:49;;;;;;;28.20;16.80;;;;;;;9.79;100.00;99172.02;212142;1326;22584;-76
2022/01/01 10:41:23;;;;;;;27.20;17.10;;;;;;;9.88;100.00;99172.48;212717;1323;24416;-75
2022/01/01 11:00:01;;;;;;;;;;;;;;;;;;;;;
2022/01/01 11:06:32;;;;;;;;;;;;;;;;;;;;;
2022/01/01 11:11:43;;;;;;;39.90;24.60;;;;;;;10.03;100.00;99160.33;212623;1323;22662;-75
2022/01/01 11:17:56;;;;;;;33.00;21.80;;;;;;;10.02;100.00;99156.68;212879;1323;22692;-75
2022/01/01 11:24:58;;;;;;;35.00;21.20;;;;;;;9.99;100.00;99164.34;212298;1326;22923;-75
2022/01/01 11:37:46;;;;;;;25.80;16.40;;;;;;;10.05;100.00;99158.60;212624;1323;22616;-76
2022/01/01 11:43:53;;;;;;;28.20;17.20;;;;;;;10.08;100.00;99154.03;212759;1326;22688;-77
2022/01/01 11:50:04;;;;;;;21.20;13.90;;;;;;;10.12;100.00;99155.67;212673;1324;22663;-75
2022/01/01 11:56:33;;;;;;;;;;;;;;;;;;;;;
2022/01/01 12:03:19;;;;;;;18.30;11.60;;;;;;;9.96;100.00;99166.94;212502;1323;24323;-76
2022/01/01 12:09:26;;;;;;;15.40;10.20;;;;;;;9.91;100.00;99168.89;212707;1323;25417;-75
2022/01/01 12:15:52;;;;;;;14.70;8.30;;;;;;;9.86;100.00;99180.73;212877;1324;24836;-74
2022/01/01 12:21:58;;;;;;;12.10;9.00;;;;;;;9.78;100.00;99179.16;212594;1323;25406;-75
2022/01/01 12:33:28;;;;;;;5.00;3.70;;;;;;;9.67;100.00;99188.92;212727;1324;22725;-74
2022/01/01 12:39:07;;;;;;;3.50;2.70;;;;;;;9.58;100.00;99190.55;212707;1326;22623;-76
2022/01/01 12:44:31;;;;;;;3.80;3.10;;;;;;;9.50;100.00;99196.98;212881;1324;22611;-75
2022/01/01 12:49:44;;;;;;;4.80;3.20;;;;;;;9.44;100.00;99194.16;212962;1323;22619;-75
2022/01/01 12:55:40;;;;;;;6.30;3.60;;;;;;;9.41;100.00;99199.73;212911;1323;26396;-75
2022/01/01 13:00:49;;;;;;;4.60;3.20;;;;;;;9.38;100.00;99206.69;212540;1323;25476;-75
2022/01/01 13:06:39;;;;;;;6.10;4.20;;;;;;;9.35;100.00;99216.36;212875;1323;22535;-73
2022/01/01 13:11:57;;;;;;;8.60;5.90;;;;;;;9.36;100.00;99225.02;212947;1324;22667;-74
2022/01/01 13:17:09;;;;;;;10.40;7.50;;;;;;;9.40;100.00;99220.38;212854;1324;23036;-75
2022/01/01 13:22:11;;;;;;;15.70;11.40;;;;;;;9.44;100.00;99232.94;212963;1324;22591;-75
2022/01/01 13:27:16;;;;;;;19.10;10.40;;;;;;;9.44;100.00;99238.87;212806;1323;22654;-75
2022/01/01 13:32:18;;;;;;;19.10;11.90;;;;;;;9.41;100.00;99239.31;212926;1326;22835;-74
2022/01/01 13:37:26;;;;;;;19.80;12.70;;;;;;;9.39;100.00;99235.94;212388;1326;24269;-75
2022/01/01 13:42:28;;;;;;;18.70;11.50;;;;;;;9.37;100.00;99243.00;212580;1326;22678;-74
2022/01/01 13:47:33;;;;;;;17.30;11.30;;;;;;;9.36;100.00;99253.48;212526;1323;24346;-75
2022/01/01 13:52:53;;;;;;;21.80;13.50;;;;;;;9.37;100.00;99261.56;212571;1324;22627;-73
2022/01/01 13:58:03;;;;;;;19.60;12.80;;;;;;;9.38;100.00;99269.41;212858;1323;22594;-74
2022/01/01 14:03:16;;;;;;;24.20;15.90;;;;;;;9.41;100.00;99274.45;212540;1326;22577;-75
2022/01/01 14:08:30;;;;;;;25.50;15.20;;;;;;;9.41;100.00;99272.73;212427;1326;22657;-75
2022/01/01 14:14:44;;;;;;;30.60;17.20;;;;;;;9.44;100.00;99278.83;212764;1323;22595;-75
2022/01/01 14:19:46;;;;;;;29.60;18.30;;;;;;;9.46;100.00;99280.64;212759;1323;23116;-75
2022/01/01 14:25:01;;;;;;;32.30;18.90;;;;;;;9.49;100.00;99282.35;212685;1324;22605;-75
2022/01/01 14:30:13;;;;;;;32.80;19.30;;;;;;;9.50;100.00;99290.53;212167;1324;24264;-75
2022/01/01 14:35:33;;;;;;;30.70;18.30;;;;;;;9.52;100.00;99297.16;212971;1323;25394;-76
2022/01/01 14:40:39;;;;;;;32.90;17.60;;;;;;;9.54;100.00;99307.81;212841;1323;22675;-74
2022/01/01 14:45:43;;;;;;;38.00;21.30;;;;;;;9.55;100.00;99312.08;212541;1326;23098;-76
2022/01/01 14:50:57;;;;;;;34.30;20.20;;;;;;;9.56;100.00;99320.45;212815;1323;24346;-74
2022/01/01 14:56:38;;;;;;;39.40;19.90;;;;;;;9.59;100.00;99327.50;212707;1323;22522;-75
2022/01/01 15:02:07;;;;;;;37.30;20.80;;;;;;;9.60;100.00;99333.64;212887;1323;25533;-75
2022/01/01 15:07:33;;;;;;;;;;;;;;;;;;;;;
2022/01/01 15:13:17;;;;;;;43.10;24.30;;;;;;;9.61;100.00;99349.69;212641;1323;22807;-75
2022/01/01 15:18:49;;;;;;;;;;;;;;;;;;;;;
2022/01/01 15:25:08;;;;;;;46.00;26.60;;;;;;;9.59;100.00;99358.09;212816;1326;22615;-75
2022/01/01 15:31:00;;;;;;;;;;;;;;;;;;;;;
2022/01/01 15:37:04;;;;;;;;;;;;;;;;;;;;;
2022/01/01 15:43:02;;;;;;;;;;;;;;;;;;;;;
2022/01/01 15:49:05;;;;;;;50.70;26.70;;;;;;;9.62;100.00;99363.60;212503;1326;22754;-75
2022/01/01 15:55:18;;;;;;;46.10;25.70;;;;;;;9.61;100.00;99364.02;212559;1323;24355;-74
2022/01/01 16:01:08;;;;;;;;;;;;;;;;;;;;;
2022/01/01 16:07:22;;;;;;;;;;;;;;;;;;;;;
2022/01/01 16:13:32;;;;;;;;;;;;;;;;;;;;;
2022/01/01 16:19:41;;;;;;;42.70;23.60;;;;;;;9.50;100.00;99368.15;212670;1326;24220;-75
2022/01/01 16:25:39;;;;;;;43.10;23.30;;;;;;;9.45;100.00;99375.58;212445;1326;26363;-76
2022/01/01 16:30:52;;;;;;;44.20;22.40;;;;;;;9.44;100.00;99374.02;212474;1326;24330;-75
2022/01/01 16:43:14;;;;;;;32.40;18.30;;;;;;;9.39;100.00;99398.20;212621;1324;25597;-75
2022/01/01 16:49:37;;;;;;;;;;;;;;;;;;;;;
2022/01/01 16:56:07;;;;;;;29.40;15.60;;;;;;;9.34;100.00;99405.19;212728;1325;23391;-76
2022/01/01 17:02:27;;;;;;;28.60;15.30;;;;;;;9.32;100.00;99410.54;212320;1326;22600;-74
2022/01/01 17:08:11;;;;;;;27.30;14.80;;;;;;;9.29;100.00;99410.48;212555;1326;24538;-75
2022/01/01 17:13:51;;;;;;;29.30;16.40;;;;;;;9.27;100.00;99414.84;212548;1328;22668;-76
2022/01/01 17:20:03;;;;;;;;;;;;;;;;;;;;;
2022/01/01 17:33:09;;;;;;;;;;;;;;;;;;;;;
2022/01/01 17:44:35;;;;;;;;;;;;;;;;;;;;;
2022/01/01 17:50:17;;;;;;;32.80;17.60;;;;;;;9.24;100.00;99439.12;212591;1324;22797;-75
2022/01/01 17:56:13;;;;;;;36.90;17.20;;;;;;;9.21;100.00;99443.88;212945;1324;22934;-75
2022/01/01 18:08:27;;;;;;;40.00;19.20;;;;;;;9.25;100.00;99453.18;212602;1324;25463;-75
2022/01/01 18:32:38;;;;;;;54.00;24.80;;;;;;;9.25;100.00;99464.25;212478;1329;23173;-75
2022/01/01 18:38:34;;;;;;;;;;;;;;;;;;;;;
2022/01/01 18:43:48;;;;;;;66.00;31.00;;;;;;;9.26;100.00;99467.72;212668;1326;22605;-76
2022/01/01 18:49:17;;;;;;;71.90;33.20;;;;;;;9.25;100.00;99468.80;212758;1323;24275;-75
2022/01/01 18:54:52;;;;;;;70.50;32.00;;;;;;;9.21;100.00;99468.46;212430;1324;22615;-76
2022/01/01 19:00:11;;;;;;;68.50;33.10;;;;;;;9.17;100.00;99459.05;212885;1323;23457;-75
2022/01/01 19:05:26;;;;;;;67.50;32.20;;;;;;;9.14;100.00;99465.13;212869;1323;22718;-75
2022/01/01 19:11:12;;;;;;;72.70;35.10;;;;;;;9.12;100.00;99464.78;212732;1324;22583;-76
2022/01/01 19:16:57;;;;;;;67.90;32.50;;;;;;;9.08;100.00;99474.56;212482;1326;26537;-76
2022/01/01 19:22:14;;;;;;;77.10;35.00;;;;;;;9.04;100.00;99477.96;212480;1324;22625;-75
2022/01/01 19:27:41;;;;;;;;;;;;;;;;;;;;;
2022/01/01 19:33:41;;;;;;;74.40;33.50;;;;;;;9.01;100.00;99487.63;212602;1326;22646;-77
2022/01/01 19:39:16;;;;;;;71.20;32.00;;;;;;;9.00;100.00;99495.05;212619;1324;22616;-76
2022/01/01 19:44:32;;;;;;;71.30;30.90;;;;;;;9.00;100.00;99495.90;212358;1324;22626;-76
2022/01/01 19:50:20;;;;;;;;;;;;;;;;;;;;;
2022/01/01 19:56:25;;;;;;;101.40;36.90;;;;;;;9.02;100.00;99497.63;212647;1323;25405;-76
2022/01/01 20:03:09;;;;;;;108.30;42.20;;;;;;;9.02;100.00;99509.39;212558;1323;22738;-75
2022/01/01 20:16:52;;;;;;;;;;;;;;;;;;;;;
2022/01/01 20:23:20;;;;;;;;;;;;;;;;;;;;;
2022/01/01 20:30:05;;;;;;;91.00;36.60;;;;;;;9.03;100.00;99513.45;211850;1326;23137;-75
2022/01/01 20:36:38;;;;;;;88.90;35.70;;;;;;;9.05;100.00;99510.10;212672;1323;22764;-76
2022/01/01 20:43:05;;;;;;;78.10;34.90;;;;;;;9.00;100.00;99508.83;212620;1327;25533;-76
2022/01/01 20:49:58;;;;;;;86.50;39.40;;;;;;;8.96;100.00;99509.72;212610;1323;22625;-75
2022/01/01 20:56:33;;;;;;;80.90;36.00;;;;;;;8.92;100.00;99510.83;212470;1325;22749;-76
2022/01/01 21:03:08;;;;;;;75.60;33.60;;;;;;;8.86;100.00;99505.40;212282;1324;22589;-74
2022/01/01 21:09:53;;;;;;;;;;;;;;;;;;;;;
2022/01/01 21:16:15;;;;;;;;;;;;;;;;;;;;;
2022/01/01 21:22:34;;;;;;;70.00;32.20;;;;;;;9.02;100.00;99513.77;212475;1324;22766;-76
2022/01/01 21:40:09;;;;;;;;;;;;;;;;;;;;;
2022/01/01 21:52:46;;;;;;;;;;;;;;;;;;;;;
2022/01/01 22:06:06;;;;;;;98.70;41.20;;;;;;;8.67;100.00;99514.37;212457;1324;25917;-76
2022/01/01 22:13:06;;;;;;;92.10;39.20;;;;;;;8.59;100.00;99521.21;212458;1326;25373;-76
2022/01/01 22:19:58;;;;;;;;;;;;;;;;;;;;;
2022/01/01 22:26:58;;;;;;;;;;;;;;;;;;;;;
2022/01/01 22:51:58;;;;;;;;;;;;;;;;;;;;;
2022/01/01 22:58:07;;;;;;;76.50;33.70;;;;;;;8.64;100.00;99501.63;212408;1323;22615;-77
2022/01/01 23:05:14;;;;;;;74.30;33.20;;;;;;;8.55;100.00;99504.20;212462;1323;25430;-75
2022/01/01 23:10:57;;;;;;;63.60;30.70;;;;;;;8.52;100.00;99503.64;212428;1326;22662;-76
2022/01/01 23:16:44;;;;;;;81.30;38.20;;;;;;;8.50;100.00;99505.55;212025;1326;23482;-76
2022/01/01 23:23:28;;;;;;;;;;;;;;;;;;;;;
2022/01/01 23:30:05;;;;;;;;;;;;;;;;;;;;;
2022/01/01 23:43:24;;;;;;;;;;;;;;;;;;;;;
2022/01/01 23:49:49;;;;;;;;;;;;;;;;;;;;;
